Aeroporto :
LOGIN :

Iscrizione | Disclaimer

   EN    FR    IT 

 










Sommario :    VFR   VFR Marginale   IFR   IFR Intensivo   IFR Molto Intensivo
Visibilità : 
Base nubi : 
>= 8 km
>= 3000ft
5 / 8 km
1000 / 3000 ft
1500m / 5 km
500 / 1000 ft
800 / 1500m
200 / 500 ft
< 800m
< 200 ft
Simboli :   Temporali  Nebbia  Neve Forte  Precipitazioni Forti  Vento > 20 kt
SIGMETs :   Varie  Temporali  Ghiacco  Turbolenza  Onda orograficha  Ceneri Vulcaniche







- Altitudine del aeroporto : 74 ft
- Codice IATA : LRH
- Carte del aeroporto


LFBH - La Rochelle Ile de Ré

ULTIMO METAR :
  • 251100Z AUTO 03010KT 010V080 9999 FEW032 13/06 Q1030 NOSIG

METARs OBSOLETI :
  • 251030Z AUTO 04012KT 9999 FEW009 12/06 Q1030 NOSIG
  • 251000Z AUTO 04012KT CAVOK 11/05 Q1030 NOSIG
  • 250930Z AUTO 04012KT CAVOK 10/06 Q1030 NOSIG
  • 250900Z AUTO 02013KT CAVOK 09/06 Q1030 NOSIG
  • 250830Z AUTO 02012KT CAVOK 08/06 Q1030 NOSIG

TAF TAF LFBH
Valido dal 25 a 12 ore il 26 a 12 ore UTC


251100Z 2512/2612 03010KT CAVOK
TEMPO 2512/2518 03010G20KT BKN040
ATIS : +33 5 46 00 13 92
Nessun NOTAM noto per questo aeroporto.
2 SIGMETs conosciuti per la FIR Bordeaux (LFBB) :
 
Turbolenza severa
LFBB SIGMET 2 VALID 251200/251600 LFPW
LFBB BORDEAUX FIR/UIR SEV TURB FCST WI N4330 E00245 - N4215 E00230 - N4245 E00145 - N4330 E00245 SFC/FL060 STNR NC=
Turbolenza severa
LFBB SIGMET 1 VALID 250900/251200 LFPW
LFBB BORDEAUX FIR/UIR SEV TURB FCST WI N4345 E00245 - N4245 E00230 - N4245 E00200 - N4345 E00245 SFC/FL060 STNR INTSF=



MetMap, La meteo Aeronautica in un colpo d'occhio ! - Copyright ORBIFLY Dicembre 2007 - Disclaimer

ORBIFLY MET'MAP TEAM :

Programmazione e sviluppo : Alexandra Zaïnal
Concezione e sviluppo : Baudouin d'Aumeries
Co-Programmazione e sviluppo : Marc-Olivier Méhu
Supporto tecnico e logistico : Manuel Goepfert
Aiuto per la traduzione : Arnaldo La Scala

Contatto : metmap@orbifly.com




FONTI E CREDITI :

   NOAA